createdAt,value
2022-09-14T00:00:00.426Z,190.9
2022-09-14T00:05:00.458Z,205.0
2022-09-14T00:10:00.400Z,199.0
2022-09-14T00:15:00.340Z,198.7
2022-09-14T00:20:00.476Z,201.3
2022-09-14T00:25:00.358Z,203.0
2022-09-14T00:30:00.386Z,198.2
2022-09-14T00:35:00.334Z,201.9
2022-09-14T00:40:00.741Z,203.3
2022-09-14T00:45:00.328Z,204.8
2022-09-14T00:50:00.380Z,197.2
2022-09-14T00:55:00.319Z,200.6
2022-09-14T01:00:00.376Z,204.6
2022-09-14T01:05:00.334Z,201.9
2022-09-14T01:10:00.391Z,205.1
2022-09-14T01:15:00.332Z,211.5
2022-09-14T01:20:00.427Z,214.4
2022-09-14T01:25:00.338Z,210.9
2022-09-14T01:30:00.441Z,228.1
2022-09-14T01:35:00.368Z,200.9
2022-09-14T01:40:00.718Z,198.2
2022-09-14T01:45:00.388Z,204.2
2022-09-14T01:50:00.443Z,229.5
2022-09-14T01:55:00.345Z,218.9
2022-09-14T02:00:00.342Z,217.1
2022-09-14T02:05:00.317Z,212.8
2022-09-14T02:10:00.469Z,216.9
2022-09-14T02:15:00.547Z,195.3
2022-09-14T02:20:00.416Z,200.4
2022-09-14T02:25:00.346Z,207.3
2022-09-14T02:30:00.405Z,195.6
2022-09-14T02:35:00.339Z,194.8
2022-09-14T02:40:00.723Z,224.1
2022-09-14T02:45:00.387Z,229.4
2022-09-14T02:50:00.368Z,226.7
2022-09-14T02:55:00.351Z,229.3
2022-09-14T03:00:00.410Z,201.8
2022-09-14T03:05:00.333Z,233.5
2022-09-14T03:10:00.397Z,212.5
2022-09-14T03:15:00.370Z,225.3
2022-09-14T03:20:00.411Z,218.3
2022-09-14T03:25:00.506Z,252.6
2022-09-14T03:30:00.410Z,223.2
2022-09-14T03:35:00.337Z,228.8
2022-09-14T03:40:00.654Z,219.5
2022-09-14T03:45:00.318Z,243.3
2022-09-14T03:50:00.419Z,246.6
2022-09-14T03:55:00.395Z,214.1
2022-09-14T04:00:00.408Z,226.0
2022-09-14T04:05:00.364Z,204.9
2022-09-14T04:10:00.538Z,197.0
2022-09-14T04:15:00.357Z,193.7
2022-09-14T04:20:00.408Z,199.4
2022-09-14T04:25:00.425Z,209.4
2022-09-14T04:30:00.410Z,199.5
2022-09-14T04:35:00.383Z,213.3
2022-09-14T04:40:00.803Z,247.3
2022-09-14T04:45:00.332Z,203.4
2022-09-14T04:50:00.379Z,202.2
2022-09-14T04:55:00.385Z,202.5
2022-09-14T05:00:00.455Z,202.7
2022-09-14T05:05:00.375Z,206.0
2022-09-14T05:10:00.718Z,202.5
2022-09-14T05:15:00.338Z,201.7
2022-09-14T05:20:00.435Z,203.1
2022-09-14T05:25:00.403Z,201.3
2022-09-14T05:30:00.740Z,220.8
2022-09-14T05:35:00.352Z,230.7
2022-09-14T05:40:00.774Z,196.4
2022-09-14T05:45:00.372Z,208.4
2022-09-14T05:50:00.576Z,201.9
2022-09-14T05:55:00.314Z,202.8
2022-09-14T06:00:00.437Z,222.7
2022-09-14T06:05:00.638Z,206.3
2022-09-14T06:10:00.431Z,211.8
2022-09-14T06:15:00.364Z,215.5
2022-09-14T06:20:05.223Z,204.8
2022-09-14T06:25:00.377Z,219.3
2022-09-14T06:30:00.434Z,221.2
2022-09-14T06:35:00.457Z,217.7
2022-09-14T06:40:00.609Z,252.4
2022-09-14T06:45:00.368Z,247.6
2022-09-14T06:50:00.551Z,250.0
2022-09-14T06:55:00.329Z,235.6
2022-09-14T07:00:00.455Z,224.8
2022-09-14T07:05:00.369Z,232.0
2022-09-14T07:10:00.440Z,251.6
2022-09-14T07:15:00.338Z,286.7
2022-09-14T07:20:00.496Z,211.7
2022-09-14T07:25:00.317Z,213.2
2022-09-14T07:30:00.491Z,251.3
2022-09-14T07:35:00.434Z,250.4
2022-09-14T07:40:00.822Z,269.0
2022-09-14T07:45:00.320Z,212.0
2022-09-14T07:50:00.578Z,272.1
2022-09-14T07:55:00.435Z,269.8
2022-09-14T08:00:00.450Z,275.6
2022-09-14T08:05:00.436Z,236.6
2022-09-14T08:10:00.564Z,234.0
2022-09-14T08:15:00.477Z,244.1
2022-09-14T08:20:00.437Z,253.7
2022-09-14T08:25:00.470Z,251.5
2022-09-14T08:30:00.514Z,303.3
2022-09-14T08:35:00.366Z,283.3
2022-09-14T08:40:00.703Z,246.3
2022-09-14T08:45:00.417Z,270.5
2022-09-14T08:50:00.539Z,278.7
2022-09-14T08:55:00.328Z,267.9
2022-09-14T09:00:00.410Z,239.0
2022-09-14T09:05:00.362Z,250.2
2022-09-14T09:10:00.434Z,229.3
2022-09-14T09:15:00.487Z,252.1
2022-09-14T09:20:00.389Z,266.5
2022-09-14T09:25:00.415Z,268.9
2022-09-14T09:30:00.459Z,231.4
2022-09-14T09:35:00.346Z,266.5
2022-09-14T09:40:00.877Z,319.4
2022-09-14T09:45:04.510Z,281.1
2022-09-14T09:50:00.556Z,282.7
2022-09-14T09:55:00.323Z,303.3
2022-09-14T10:00:00.497Z,235.8
2022-09-14T10:05:00.376Z,294.9
2022-09-14T10:10:00.587Z,317.5
2022-09-14T10:15:00.354Z,279.8
2022-09-14T10:20:00.538Z,272.8
2022-09-14T10:25:00.344Z,289.6
2022-09-14T10:30:00.605Z,285.8
2022-09-14T10:35:00.354Z,276.8
2022-09-14T10:40:00.712Z,292.6
2022-09-14T10:45:00.354Z,316.3
2022-09-14T10:50:00.536Z,278.6
2022-09-14T10:55:00.326Z,241.4
2022-09-14T11:00:00.477Z,260.9
2022-09-14T11:05:00.372Z,263.3
2022-09-14T11:10:00.529Z,287.0
2022-09-14T11:15:00.387Z,289.5
2022-09-14T11:20:00.572Z,258.6
2022-09-14T11:25:00.329Z,239.8
2022-09-14T11:30:00.448Z,257.3
2022-09-14T11:35:00.332Z,280.0
2022-09-14T11:40:00.757Z,222.3
2022-09-14T11:45:00.353Z,282.3
2022-09-14T11:50:00.513Z,265.3
2022-09-14T11:55:00.383Z,227.0
2022-09-14T12:00:00.457Z,256.3
2022-09-14T12:05:00.352Z,195.7
2022-09-14T12:10:00.400Z,241.3
2022-09-14T12:15:00.367Z,221.5
2022-09-14T12:20:00.774Z,220.5
2022-09-14T12:25:00.318Z,193.3
2022-09-14T12:30:00.461Z,275.8
2022-09-14T12:35:00.431Z,257.9
2022-09-14T12:40:00.855Z,278.6
2022-09-14T12:45:00.315Z,284.0
2022-09-14T12:50:00.616Z,285.1
2022-09-14T12:55:00.422Z,223.1
2022-09-14T13:00:00.525Z,285.8
2022-09-14T13:05:00.357Z,270.0
2022-09-14T13:10:00.495Z,272.0
2022-09-14T13:15:00.326Z,257.6
2022-09-14T13:20:00.549Z,238.5
2022-09-14T13:25:00.339Z,194.3
2022-09-14T13:30:00.491Z,246.8
2022-09-14T13:35:00.409Z,284.0
2022-09-14T13:40:00.770Z,288.6
2022-09-14T13:45:00.426Z,256.6
2022-09-14T13:50:00.555Z,269.9
2022-09-14T13:55:00.308Z,265.3
2022-09-14T14:00:00.453Z,262.5
2022-09-14T14:05:00.373Z,243.8
2022-09-14T14:10:00.626Z,293.9
2022-09-14T14:15:00.326Z,272.2
2022-09-14T14:20:00.642Z,267.0
2022-09-14T14:25:14.726Z,217.4
2022-09-14T14:30:00.591Z,246.1
2022-09-14T14:35:00.330Z,266.8
2022-09-14T14:40:00.940Z,226.9
2022-09-14T14:45:00.374Z,261.7
2022-09-14T14:50:00.987Z,296.3
2022-09-14T14:55:01.652Z,268.1
2022-09-14T15:00:00.795Z,211.6
2022-09-14T15:05:00.353Z,224.0
2022-09-14T15:10:00.794Z,228.0
2022-09-14T15:15:00.377Z,211.6
2022-09-14T15:20:00.782Z,220.8
2022-09-14T15:25:00.335Z,237.2
2022-09-14T15:30:00.702Z,249.6
2022-09-14T15:35:00.341Z,210.8
2022-09-14T15:40:01.168Z,199.1
2022-09-14T15:45:00.327Z,194.5
2022-09-14T15:50:00.447Z,191.4
2022-09-14T15:55:00.323Z,187.0
2022-09-14T16:00:00.404Z,207.4
2022-09-14T16:05:00.445Z,195.0
2022-09-14T16:10:00.775Z,201.4
2022-09-14T16:15:00.364Z,202.5
2022-09-14T16:20:00.472Z,202.5
2022-09-14T16:25:00.340Z,198.3
2022-09-14T16:30:00.403Z,203.3
2022-09-14T16:35:08.542Z,188.9
2022-09-14T16:40:00.772Z,200.9
2022-09-14T16:45:00.365Z,202.3
2022-09-14T16:50:00.389Z,202.5
2022-09-14T16:55:00.327Z,202.6
2022-09-14T17:00:00.407Z,204.7
2022-09-14T17:05:00.333Z,202.9
2022-09-14T17:10:00.427Z,200.1
2022-09-14T17:15:00.395Z,210.9
2022-09-14T17:20:00.443Z,202.7
2022-09-14T17:25:00.344Z,202.4
2022-09-14T17:30:00.420Z,202.5
2022-09-14T17:35:00.334Z,203.2
2022-09-14T17:40:00.750Z,202.5
2022-09-14T17:45:00.326Z,202.5
2022-09-14T17:50:00.401Z,202.5
2022-09-14T17:55:00.388Z,202.5
